Time;durP1;ratioP1;P1;durP2;ratioP2;P2;SDS_P1;SDS_P2;PMS_P1;PMS_P2;Temp;Humidity;BMP_temperature;BMP_pressure;BME280_temperature;BME280_humidity;BME280_pressure;Samples;Min_cycle;Max_cycle;Signal;HPM_P1;HPM_P2
2022/04/08 00:01:28;;;;;;;2.17;1.20;;;;;;;12.59;44.33;99303.00;5008384;28;20054;-72
2022/04/08 00:03:55;;;;;;;2.72;0.77;;;;;;;12.58;44.75;99302.13;5009092;28;20137;-72
2022/04/08 00:06:22;;;;;;;3.08;1.10;;;;;;;12.58;44.78;99304.00;5010811;28;20068;-72
2022/04/08 00:08:49;;;;;;;2.33;1.00;;;;;;;12.56;44.76;99309.59;5005670;28;20127;-72
2022/04/08 00:11:16;;;;;;;1.45;0.93;;;;;;;12.55;44.35;99299.69;5011801;28;20073;-72
2022/04/08 00:13:43;;;;;;;2.80;1.00;;;;;;;12.54;44.94;99314.31;5011769;28;20136;-72
2022/04/08 00:16:10;;;;;;;2.10;1.33;;;;;;;12.54;44.77;99319.75;5009325;28;20453;-72
2022/04/08 00:18:41;;;;;;;2.30;1.10;;;;;;;12.55;44.74;99315.19;5012582;28;20053;-72
2022/04/08 00:21:08;;;;;;;2.78;1.00;;;;;;;12.53;44.73;99323.50;5006418;28;20505;-72
2022/04/08 00:27:15;;;;;;;2.20;0.90;;;;;;;12.47;44.67;99329.56;5006206;28;20084;-72
2022/04/08 00:29:42;;;;;;;2.90;0.88;;;;;;;12.47;44.47;99348.59;5011305;28;20499;-72
2022/04/08 00:32:09;;;;;;;2.65;1.00;;;;;;;12.47;44.57;99343.16;5009768;28;20046;-72
2022/04/08 00:34:36;;;;;;;4.35;1.20;;;;;;;12.47;44.43;99336.84;5007588;28;20050;-72
2022/04/08 00:37:03;;;;;;;3.50;0.90;;;;;;;12.45;44.48;99358.78;5010086;28;20066;-72
2022/04/08 00:39:29;;;;;;;2.78;0.77;;;;;;;12.44;44.69;99358.94;5011324;28;20058;-72
2022/04/08 00:41:59;;;;;;;1.38;0.80;;;;;;;12.45;44.51;99355.19;5011663;28;20050;-72
2022/04/08 00:44:26;;;;;;;1.92;0.70;;;;;;;12.41;44.68;99356.53;5005257;28;20080;-72
2022/04/08 00:46:53;;;;;;;2.30;0.88;;;;;;;12.39;44.76;99364.84;5009760;28;20465;-72
2022/04/08 00:49:19;;;;;;;2.63;0.90;;;;;;;12.38;44.79;99365.84;5011421;28;20070;-72
2022/04/08 00:51:46;;;;;;;4.25;1.50;;;;;;;12.39;44.79;99369.41;5013794;28;20085;-72
2022/04/08 00:54:13;;;;;;;3.40;0.95;;;;;;;12.36;44.73;99381.44;5006386;28;20101;-72
2022/04/08 00:56:40;;;;;;;3.38;1.15;;;;;;;12.34;44.82;99383.50;5006303;28;20045;-72
2022/04/08 00:59:07;;;;;;;4.90;0.90;;;;;;;12.33;45.07;99380.91;5010363;28;20058;-72
2022/04/08 01:01:33;;;;;;;3.28;1.05;;;;;;;12.32;45.00;99390.94;5012226;28;20046;-72
2022/04/08 01:04:00;;;;;;;2.35;0.90;;;;;;;12.32;44.78;99396.38;5009461;28;20045;-72
2022/04/08 01:06:27;;;;;;;2.22;1.10;;;;;;;12.30;45.06;99395.66;5010644;28;20045;-72
2022/04/08 01:08:54;;;;;;;4.03;1.20;;;;;;;12.29;44.78;99404.84;5005780;28;20156;-72
2022/04/08 01:11:21;;;;;;;3.15;1.20;;;;;;;12.27;44.98;99406.84;5011424;28;20081;-72
2022/04/08 01:13:47;;;;;;;3.67;1.35;;;;;;;12.27;44.91;99411.44;5005768;28;20134;-72
2022/04/08 01:16:14;;;;;;;3.55;1.30;;;;;;;12.24;44.99;99420.75;5026528;28;20444;-72
2022/04/08 01:18:44;;;;;;;3.17;1.73;;;;;;;12.22;45.06;99425.47;5008451;28;20077;-72
2022/04/08 01:21:10;;;;;;;3.70;1.25;;;;;;;12.22;45.12;99439.09;5009347;28;20046;-72
2022/04/08 01:23:37;;;;;;;4.00;1.50;;;;;;;12.20;45.10;99452.84;5009361;28;20057;-72
2022/04/08 01:26:06;;;;;;;4.50;1.40;;;;;;;12.21;45.11;99434.66;5011362;28;20458;-72
2022/04/08 01:28:33;;;;;;;3.65;1.27;;;;;;;12.19;45.01;99440.22;5005925;28;20138;-72
2022/04/08 01:31:00;;;;;;;4.50;1.30;;;;;;;12.18;44.66;99441.25;5009849;28;20049;-72
2022/04/08 01:33:26;;;;;;;4.50;1.25;;;;;;;12.16;44.79;99454.16;5009362;28;20084;-72
2022/04/08 01:35:53;;;;;;;5.10;1.48;;;;;;;12.15;44.98;99446.13;5005949;28;20055;-72
2022/04/08 01:38:19;;;;;;;3.95;1.30;;;;;;;12.13;45.30;99462.59;5007158;28;20529;-72
2022/04/08 01:40:46;;;;;;;2.25;1.30;;;;;;;12.12;44.95;99466.31;5009889;28;20081;-72
2022/04/08 01:43:13;;;;;;;4.60;1.42;;;;;;;12.09;44.95;99466.63;5007385;28;20054;-72
2022/04/08 01:45:39;;;;;;;4.43;1.30;;;;;;;12.09;45.18;99469.34;5008543;28;20375;-72
2022/04/08 01:48:06;;;;;;;4.30;1.77;;;;;;;12.08;45.09;99473.06;5004549;28;20056;-72
2022/04/08 01:50:36;;;;;;;3.83;1.35;;;;;;;12.07;45.37;99482.22;5005619;28;20463;-72
2022/04/08 01:53:03;;;;;;;4.35;1.48;;;;;;;12.07;45.13;99484.09;5009915;28;20103;-72
2022/04/08 01:55:31;;;;;;;5.47;1.58;;;;;;;12.08;44.97;99485.81;5007744;28;20066;-72
2022/04/08 01:57:58;;;;;;;4.03;1.20;;;;;;;12.07;45.16;99489.53;5001990;28;20078;-72
2022/04/08 02:00:25;;;;;;;4.40;1.10;;;;;;;12.06;45.11;99493.25;5009400;28;20485;-72
2022/04/08 02:02:52;;;;;;;6.60;1.20;;;;;;;12.05;44.96;99483.38;5005041;28;20061;-72
2022/04/08 02:05:19;;;;;;;4.38;1.58;;;;;;;12.05;44.97;99480.66;5001780;28;20137;-72
2022/04/08 02:07:46;;;;;;;3.35;0.98;;;;;;;12.04;44.83;99500.69;5026290;28;20144;-72
2022/04/08 02:10:15;;;;;;;3.95;1.35;;;;;;;12.02;44.82;99492.69;5006967;28;20085;-72
2022/04/08 02:12:42;;;;;;;2.60;1.05;;;;;;;12.00;45.00;99494.69;5011003;28;20478;-72
2022/04/08 02:15:09;;;;;;;6.53;1.45;;;;;;;12.02;45.02;99516.31;5008935;28;20045;-72
2022/04/08 02:17:39;;;;;;;5.20;1.40;;;;;;;11.99;44.93;99511.16;5006076;28;20057;-72
2022/04/08 02:20:08;;;;;;;5.28;1.10;;;;;;;11.97;44.94;99519.47;5024248;28;20069;-72
2022/04/08 02:22:35;;;;;;;4.25;1.13;;;;;;;11.96;44.99;99525.03;5010808;28;20054;-72
2022/04/08 02:25:05;;;;;;;4.55;1.48;;;;;;;11.97;45.50;99524.03;5008585;28;20140;-72
2022/04/08 02:27:32;;;;;;;3.65;1.17;;;;;;;11.96;45.11;99527.75;5010408;28;20088;-72
2022/04/08 02:29:59;;;;;;;3.95;1.30;;;;;;;11.95;45.09;99526.91;5007432;28;20082;-71
2022/04/08 02:32:26;;;;;;;3.90;1.52;;;;;;;11.96;45.18;99535.91;5004069;28;20076;-72
2022/04/08 02:34:52;;;;;;;6.70;1.35;;;;;;;11.95;45.34;99531.47;5005309;28;20054;-72
2022/04/08 02:37:19;;;;;;;4.97;1.25;;;;;;;11.95;45.53;99532.34;5008714;28;20121;-72
2022/04/08 02:39:46;;;;;;;3.30;1.15;;;;;;;11.95;45.39;99528.75;5008398;28;20464;-72
2022/04/08 02:42:13;;;;;;;3.33;1.45;;;;;;;11.96;45.43;99533.19;5003097;28;20053;-72
2022/04/08 02:44:39;;;;;;;4.00;1.65;;;;;;;11.96;45.43;99531.34;5006485;28;20116;-72
2022/04/08 02:47:06;;;;;;;4.03;1.33;;;;;;;11.96;45.18;99534.06;5008315;28;20056;-72
2022/04/08 02:49:33;;;;;;;2.72;1.27;;;;;;;11.98;45.22;99529.34;5008399;28;20054;-72
2022/04/08 02:51:59;;;;;;;3.78;1.42;;;;;;;11.98;45.48;99540.22;5009855;28;20073;-72
2022/04/08 02:54:26;;;;;;;5.47;1.50;;;;;;;11.99;45.61;99541.06;5009030;28;20115;-72
2022/04/08 02:56:52;;;;;;;5.53;1.35;;;;;;;11.98;45.12;99537.50;5002148;28;20061;-72
2022/04/08 02:59:19;;;;;;;3.50;1.50;;;;;;;11.98;45.02;99540.22;5003049;28;20128;-72
2022/04/08 03:01:46;;;;;;;3.47;1.20;;;;;;;11.98;45.36;99544.78;5007920;28;20054;-72
2022/04/08 03:04:13;;;;;;;5.80;1.40;;;;;;;11.98;44.94;99537.50;5007938;28;20125;-72
2022/04/08 03:06:39;;;;;;;4.63;1.45;;;;;;;11.97;45.24;99543.94;5009741;28;20081;-72
2022/04/08 03:09:06;;;;;;;3.88;1.10;;;;;;;11.97;45.29;99554.81;5009597;28;20581;-72
2022/04/08 03:11:33;;;;;;;4.07;1.45;;;;;;;11.97;45.28;99543.94;5012142;28;20050;-72
2022/04/08 03:14:02;;;;;;;4.03;1.38;;;;;;;11.97;45.23;99548.50;5011313;28;20053;-72
2022/04/08 03:16:29;;;;;;;2.58;1.20;;;;;;;11.96;45.37;99544.94;5011194;28;20074;-72
2022/04/08 03:18:56;;;;;;;2.95;1.15;;;;;;;11.95;45.30;99537.78;5017052;28;20045;-72
2022/04/08 03:21:22;;;;;;;3.75;1.30;;;;;;;11.96;45.46;99544.06;5013772;28;20053;-72
2022/04/08 03:23:49;;;;;;;4.97;1.45;;;;;;;11.96;45.28;99538.63;5011542;28;20096;-72
2022/04/08 03:26:16;;;;;;;4.35;1.73;;;;;;;11.94;45.26;99541.50;5005631;28;20069;-72
2022/04/08 03:28:46;;;;;;;4.70;1.92;;;;;;;11.95;45.28;99540.50;5012532;28;20054;-72
2022/04/08 03:31:13;;;;;;;4.03;1.83;;;;;;;11.94;45.10;99552.38;5028484;28;20499;-72
2022/04/08 03:33:39;;;;;;;4.20;1.48;;;;;;;11.93;45.29;99547.09;5010602;28;20124;-72
2022/04/08 03:36:06;;;;;;;7.15;1.67;;;;;;;11.92;45.04;99550.81;5011503;28;20232;-72
2022/04/08 03:38:34;;;;;;;5.38;1.75;;;;;;;11.91;45.14;99547.25;5005464;28;20406;-72
2022/04/08 03:41:00;;;;;;;4.22;1.70;;;;;;;11.89;45.26;99548.38;5011281;28;20154;-72
2022/04/08 03:43:30;;;;;;;4.47;1.60;;;;;;;11.89;44.97;99551.94;5011826;28;20516;-72
2022/04/08 03:45:56;;;;;;;5.97;1.90;;;;;;;11.86;45.09;99546.78;5012481;28;20105;-72
2022/04/08 03:48:23;;;;;;;4.10;1.55;;;;;;;11.86;45.07;99560.38;5014536;28;20385;-72
2022/04/08 03:50:50;;;;;;;4.57;1.75;;;;;;;11.87;45.16;99567.53;5010611;28;20041;-72
2022/04/08 03:53:17;;;;;;;7.63;2.25;;;;;;;11.85;45.22;99568.72;5008506;28;20073;-72
2022/04/08 03:55:44;;;;;;;4.78;1.90;;;;;;;11.83;45.12;99563.41;5010355;28;20121;-72
2022/04/08 03:58:10;;;;;;;4.30;1.83;;;;;;;11.83;45.01;99579.72;5009618;28;20093;-72
2022/04/08 04:00:38;;;;;;;5.07;1.75;;;;;;;11.83;45.10;99571.56;5005185;28;20144;-72
2022/04/08 04:03:05;;;;;;;6.30;2.13;;;;;;;11.80;44.95;99580.00;5011720;28;20126;-72
2022/04/08 04:05:37;;;;;;;6.40;1.80;;;;;;;11.78;44.93;99582.84;5011098;28;20049;-72
2022/04/08 04:08:05;;;;;;;6.63;2.10;;;;;;;11.80;44.78;99594.44;5005818;28;20124;-72
2022/04/08 04:10:31;;;;;;;6.97;2.22;;;;;;;11.78;45.00;99599.16;5005560;28;20494;-72
2022/04/08 04:12:58;;;;;;;5.15;2.10;;;;;;;11.77;45.19;99593.91;5009224;28;20493;-72
2022/04/08 04:15:24;;;;;;;5.40;2.42;;;;;;;11.77;45.17;99593.91;5006030;28;20655;-72
2022/04/08 04:17:51;;;;;;;5.45;2.28;;;;;;;11.76;44.77;99598.47;5009511;28;20089;-72
2022/04/08 04:20:18;;;;;;;5.85;2.60;;;;;;;11.76;44.96;99606.63;5009505;28;20046;-72
2022/04/08 04:22:44;;;;;;;5.50;2.70;;;;;;;11.77;45.27;99608.34;5011946;28;20082;-72
2022/04/08 04:25:11;;;;;;;4.55;2.20;;;;;;;11.77;45.17;99613.78;5003628;28;20058;-71
2022/04/08 04:27:38;;;;;;;6.03;2.47;;;;;;;11.78;45.37;99609.19;5002438;28;20058;-71
2022/04/08 04:30:05;;;;;;;5.95;2.60;;;;;;;11.78;45.18;99614.63;5011275;28;20520;-72
2022/04/08 04:32:31;;;;;;;5.32;2.72;;;;;;;11.76;45.16;99603.91;5011550;28;20543;-72
2022/04/08 04:35:06;;;;;;;5.43;2.65;;;;;;;11.78;45.32;99606.47;5006974;28;20058;-72
2022/04/08 04:37:34;;;;;;;5.60;2.42;;;;;;;11.79;45.09;99606.31;5007597;28;20129;-72
2022/04/08 04:40:01;;;;;;;5.90;2.33;;;;;;;11.80;45.24;99607.19;5001515;28;20104;-72
2022/04/08 04:42:28;;;;;;;4.40;2.20;;;;;;;11.78;45.37;99595.59;5005499;28;20081;-72
2022/04/08 04:44:56;;;;;;;6.18;2.58;;;;;;;11.80;45.30;99604.47;5009829;28;20100;-72
2022/04/08 04:47:23;;;;;;;4.75;2.40;;;;;;;11.79;45.18;99605.47;5011959;28;20100;-72
2022/04/08 04:49:50;;;;;;;5.70;2.85;;;;;;;11.79;45.31;99608.19;5008941;28;20686;-72
2022/04/08 04:52:17;;;;;;;4.68;2.40;;;;;;;11.78;45.35;99611.91;5006505;28;20049;-72
2022/04/08 04:54:43;;;;;;;4.97;2.40;;;;;;;11.77;45.68;99611.06;5009719;28;20133;-72
2022/04/08 04:57:10;;;;;;;5.07;2.65;;;;;;;11.79;45.53;99613.63;5003682;28;20050;-72
2022/04/08 04:59:37;;;;;;;5.47;2.88;;;;;;;11.77;45.56;99616.50;5008835;28;20709;-72
2022/04/08 05:02:04;;;;;;;5.72;2.88;;;;;;;11.78;45.25;99615.47;5003449;28;20134;-72
2022/04/08 05:04:31;;;;;;;5.65;2.67;;;;;;;11.79;45.44;99630.81;5004856;28;20057;-72
2022/04/08 05:06:57;;;;;;;8.80;2.88;;;;;;;11.77;45.48;99621.94;5010610;28;20513;-72
2022/04/08 05:09:24;;;;;;;6.93;3.20;;;;;;;11.78;45.63;99629.06;5006245;28;20077;-72
2022/04/08 05:11:50;;;;;;;4.60;2.60;;;;;;;11.79;45.29;99629.94;5003991;28;20065;-73
2022/04/08 05:14:17;;;;;;;5.72;2.70;;;;;;;11.79;45.73;99625.38;5005814;28;20077;-73
2022/04/08 05:16:44;;;;;;;5.43;3.08;;;;;;;11.80;45.75;99631.66;5005529;28;20081;-73
2022/04/08 05:19:11;;;;;;;5.15;2.50;;;;;;;11.81;45.73;99619.78;5009542;28;20068;-73
2022/04/08 05:21:38;;;;;;;7.25;2.95;;;;;;;11.82;45.60;99635.97;5011906;28;20050;-73
2022/04/08 05:24:05;;;;;;;5.22;2.72;;;;;;;11.84;45.65;99632.25;4999274;28;20068;-73
2022/04/08 05:26:31;;;;;;;6.13;3.40;;;;;;;11.84;45.61;99624.09;5005695;28;20140;-73
2022/04/08 05:28:58;;;;;;;5.70;3.28;;;;;;;11.84;45.81;99624.97;4997568;28;20466;-72
2022/04/08 05:31:24;;;;;;;6.15;4.00;;;;;;;11.84;45.71;99630.41;5009587;28;20176;-72
2022/04/08 05:33:51;;;;;;;6.25;3.65;;;;;;;11.85;45.49;99633.97;5005692;28;20052;-73
2022/04/08 05:36:18;;;;;;;6.60;4.03;;;;;;;11.86;45.68;99630.25;5004243;28;20575;-73
2022/04/08 05:38:45;;;;;;;7.57;4.18;;;;;;;11.85;45.65;99625.81;5009368;28;20536;-72
2022/04/08 05:41:12;;;;;;;5.82;3.88;;;;;;;11.84;45.66;99638.56;5007296;28;20057;-73
2022/04/08 05:43:44;;;;;;;8.95;4.72;;;;;;;11.85;45.67;99633.97;5002852;28;20085;-73
2022/04/08 05:46:14;;;;;;;7.63;5.10;;;;;;;11.84;46.11;99644.00;5005587;28;20054;-73
2022/04/08 05:48:41;;;;;;;6.72;4.20;;;;;;;11.81;45.69;99645.13;5010142;28;20168;-73
2022/04/08 05:51:08;;;;;;;6.72;4.07;;;;;;;11.82;45.66;99637.81;5006267;28;20125;-73
2022/04/08 05:53:34;;;;;;;6.43;3.88;;;;;;;11.82;45.69;99626.94;5007064;28;20088;-72
2022/04/08 05:56:03;;;;;;;6.05;3.78;;;;;;;11.82;45.87;99626.94;5004595;28;20152;-72
2022/04/08 05:58:31;;;;;;;7.32;4.10;;;;;;;11.81;45.61;99626.09;5008036;28;20054;-72
2022/04/08 06:00:58;;;;;;;7.13;3.75;;;;;;;11.80;45.97;99621.66;5006091;28;20096;-72
2022/04/08 06:03:25;;;;;;;5.70;3.47;;;;;;;11.81;46.01;99623.38;4993520;28;20482;-73
2022/04/08 06:05:53;;;;;;;6.55;3.85;;;;;;;11.81;45.76;99617.06;5002508;28;20373;-73
2022/04/08 06:08:20;;;;;;;6.00;4.30;;;;;;;11.81;45.98;99625.22;5006315;28;20046;-73
2022/04/08 06:10:47;;;;;;;5.88;3.45;;;;;;;11.81;46.27;99617.94;5007266;28;20100;-73
2022/04/08 06:13:16;;;;;;;6.68;4.07;;;;;;;11.81;46.08;99617.06;5003429;28;20075;-73
2022/04/08 06:15:43;;;;;;;6.45;3.85;;;;;;;11.84;46.24;99608.66;5002302;28;20050;-73
2022/04/08 06:18:10;;;;;;;9.25;4.22;;;;;;;11.85;45.92;99612.22;5008924;28;20089;-73
2022/04/08 06:20:37;;;;;;;6.78;4.22;;;;;;;11.85;46.05;99610.38;4976269;28;20595;-72
2022/04/08 06:23:03;;;;;;;6.05;4.00;;;;;;;11.87;46.06;99613.78;4999685;28;20078;-73
2022/04/08 06:25:30;;;;;;;6.32;4.18;;;;;;;11.87;46.09;99611.06;5004603;28;20049;-73
2022/04/08 06:28:03;;;;;;;4.90;3.50;;;;;;;11.91;45.93;99607.06;4994344;28;20120;-73
2022/04/08 06:30:32;;;;;;;6.07;3.53;;;;;;;11.90;45.76;99609.94;5008081;28;20085;-73
2022/04/08 06:32:59;;;;;;;8.30;3.88;;;;;;;11.91;46.18;99606.22;5004538;28;20135;-73
2022/04/08 06:35:25;;;;;;;6.00;3.63;;;;;;;11.91;45.98;99603.50;4998300;28;20077;-72
2022/04/08 06:38:06;;;;;;;5.70;3.78;;;;;;;11.96;46.12;99610.22;5001348;28;20050;-73
2022/04/08 06:40:35;;;;;;;5.82;3.58;;;;;;;11.94;46.25;99612.22;5003914;28;20109;-73
2022/04/08 06:43:02;;;;;;;7.28;3.55;;;;;;;11.97;46.62;99619.25;4995627;28;20050;-73
2022/04/08 06:45:29;;;;;;;7.75;3.85;;;;;;;11.99;46.60;99607.22;5004737;28;20107;-73
2022/04/08 06:47:56;;;;;;;5.90;3.42;;;;;;;12.05;46.78;99609.38;5006846;28;20080;-72
2022/04/08 06:50:23;;;;;;;5.90;3.72;;;;;;;12.11;47.19;99606.06;5005849;28;20054;-72
2022/04/08 06:52:49;;;;;;;6.20;3.47;;;;;;;12.18;47.09;99601.81;5007344;28;20092;-73
2022/04/08 06:55:16;;;;;;;5.40;3.40;;;;;;;12.26;47.11;99611.97;5005438;28;20048;-72
2022/04/08 06:57:43;;;;;;;5.90;3.50;;;;;;;12.36;47.11;99610.06;5007777;28;20050;-72
2022/04/08 07:00:12;;;;;;;5.60;3.45;;;;;;;12.48;46.97;99599.91;4999484;28;20308;-72
2022/04/08 07:02:39;;;;;;;6.75;3.50;;;;;;;12.56;46.98;99594.59;5001361;28;20046;-72
2022/04/08 07:05:07;;;;;;;6.13;3.80;;;;;;;12.66;46.89;99597.31;5001550;28;20062;-72
2022/04/08 07:07:35;;;;;;;6.25;3.67;;;;;;;12.76;46.62;99585.38;5005466;28;20101;-72
2022/04/08 07:10:04;;;;;;;5.32;3.45;;;;;;;12.86;46.83;99586.19;5004257;28;20045;-72
2022/04/08 07:12:31;;;;;;;5.82;3.05;;;;;;;12.94;46.23;99572.69;5012792;28;20089;-72
2022/04/08 07:14:57;;;;;;;6.10;3.40;;;;;;;13.02;45.85;99577.41;5001609;28;20061;-72
2022/04/08 07:17:26;;;;;;;6.90;3.80;;;;;;;13.09;45.52;99573.09;5005544;28;20640;-72
2022/04/08 07:20:14;;;;;;;6.72;3.63;;;;;;;13.12;45.41;99578.22;5003963;28;20134;-72
2022/04/08 07:22:42;;;;;;;6.13;3.55;;;;;;;13.16;45.51;99576.09;5007334;28;20147;-73
2022/04/08 07:25:10;;;;;;;6.50;3.88;;;;;;;13.19;45.19;99575.78;5007738;28;20049;-73
2022/04/08 07:27:44;;;;;;;10.38;4.35;;;;;;;13.23;44.65;99579.94;5007278;28;20064;-73
2022/04/08 07:30:12;;;;;;;7.80;4.40;;;;;;;13.21;45.06;99571.03;4997292;28;20050;-72
2022/04/08 07:32:39;;;;;;;7.32;4.40;;;;;;;13.22;45.05;99572.75;5003325;28;20129;-72
2022/04/08 07:35:07;;;;;;;7.28;4.13;;;;;;;13.21;44.85;99580.09;5004123;28;20058;-73
2022/04/08 07:37:34;;;;;;;5.82;4.00;;;;;;;13.21;44.57;99580.09;5007030;28;20045;-73
2022/04/08 07:40:06;;;;;;;6.13;3.92;;;;;;;13.21;44.33;99580.09;5005752;28;20413;-73
2022/04/08 07:42:32;;;;;;;7.60;4.05;;;;;;;13.17;44.36;99589.59;4996554;28;20068;-73
2022/04/08 07:44:59;;;;;;;5.55;3.72;;;;;;;13.17;44.46;99584.13;5005732;28;20456;-73
2022/04/08 07:47:29;;;;;;;6.13;3.78;;;;;;;13.18;44.05;99583.09;5008181;28;20053;-73
2022/04/08 07:50:10;;;;;;;6.30;3.97;;;;;;;13.16;44.09;99582.41;5003582;28;20312;-73
2022/04/08 07:52:38;;;;;;;6.57;4.20;;;;;;;13.14;44.16;99576.25;5012478;28;20440;-73
2022/04/08 07:55:06;;;;;;;5.85;4.30;;;;;;;13.13;44.00;99579.09;5008263;28;20054;-72
2022/04/08 07:57:33;;;;;;;6.97;4.10;;;;;;;13.11;44.01;99583.81;5002468;28;20046;-73
2022/04/08 08:00:00;;;;;;;6.38;3.90;;;;;;;13.08;44.33;99578.69;5010042;28;20062;-73
2022/04/08 08:02:29;;;;;;;6.95;3.80;;;;;;;13.06;44.10;99584.28;4997809;28;20053;-73
2022/04/08 08:04:56;;;;;;;5.78;3.42;;;;;;;13.04;44.07;99578.09;5005097;28;20060;-72
2022/04/08 08:07:22;;;;;;;7.00;3.72;;;;;;;13.04;43.72;99577.25;5010925;28;20050;-73
2022/04/08 08:09:49;;;;;;;6.22;3.55;;;;;;;13.01;43.94;99572.97;5005575;28;20050;-73
2022/04/08 08:12:22;;;;;;;6.93;4.00;;;;;;;12.98;44.05;99569.69;5008555;28;20137;-73
2022/04/08 08:14:48;;;;;;;5.07;3.30;;;;;;;12.99;43.77;99575.00;5009260;28;20524;-73
2022/04/08 08:17:15;;;;;;;5.82;3.22;;;;;;;12.97;43.97;99571.53;5003277;28;20489;-73
2022/04/08 08:19:42;;;;;;;5.05;3.20;;;;;;;12.96;44.02;99567.09;5002397;28;20081;-73
2022/04/08 08:22:08;;;;;;;5.63;3.70;;;;;;;12.95;43.84;99570.81;5009013;28;20133;-72
2022/04/08 08:24:35;;;;;;;5.72;3.72;;;;;;;12.94;43.80;99561.78;5009603;28;20124;-73
2022/04/08 08:27:02;;;;;;;5.60;3.70;;;;;;;12.95;43.91;99568.09;5004820;28;20402;-73
2022/04/08 08:29:28;;;;;;;5.20;3.35;;;;;;;12.93;44.08;99562.78;4999979;28;20094;-73
2022/04/08 08:31:55;;;;;;;5.68;3.47;;;;;;;12.93;44.10;99560.06;5004281;28;20142;-73
2022/04/08 08:34:23;;;;;;;4.70;3.50;;;;;;;12.93;43.99;99565.53;5010708;28;20054;-73
2022/04/08 08:36:51;;;;;;;5.45;3.67;;;;;;;12.93;44.05;99561.94;5009304;28;20089;-73
2022/04/08 08:39:19;;;;;;;5.45;3.13;;;;;;;12.93;43.97;99564.66;5001025;28;20512;-73
2022/04/08 08:41:48;;;;;;;5.30;3.45;;;;;;;12.95;43.33;99559.94;5004232;28;20053;-73
2022/04/08 08:44:15;;;;;;;5.65;3.08;;;;;;;12.90;43.58;99552.22;5002581;28;20474;-73
2022/04/08 08:46:42;;;;;;;5.90;3.53;;;;;;;12.94;43.43;99559.06;5008966;28;20108;-73
2022/04/08 08:49:11;;;;;;;4.75;3.38;;;;;;;12.95;43.39;99554.47;5003937;28;20045;-73
2022/04/08 08:51:41;;;;;;;5.45;3.13;;;;;;;12.94;43.48;99548.19;5002849;28;20446;-73
2022/04/08 08:54:08;;;;;;;4.85;3.67;;;;;;;12.94;43.64;99550.03;5006551;28;20061;-72
2022/04/08 08:56:35;;;;;;;5.10;3.50;;;;;;;12.93;43.51;99546.44;5003381;28;20615;-73
2022/04/08 08:59:01;;;;;;;5.45;3.42;;;;;;;12.94;43.42;99545.44;5006251;28;20141;-73
2022/04/08 09:01:28;;;;;;;5.55;3.30;;;;;;;12.95;43.42;99538.13;5010746;28;20050;-73
2022/04/08 09:03:55;;;;;;;6.72;3.47;;;;;;;12.95;43.67;99536.28;5001537;28;20077;-73
2022/04/08 09:06:21;;;;;;;4.72;3.00;;;;;;;12.96;43.34;99531.69;5004096;28;20053;-73
2022/04/08 09:08:56;;;;;;;6.32;2.78;;;;;;;13.02;42.83;99527.50;5002948;28;20081;-73
2022/04/08 09:11:27;;;;;;;4.75;3.10;;;;;;;13.01;42.69;99517.63;5007137;28;20042;-73
2022/04/08 09:14:01;;;;;;;6.22;2.83;;;;;;;13.02;42.52;99517.44;5009880;28;20133;-73
2022/04/08 09:16:29;;;;;;;4.35;2.70;;;;;;;13.02;43.14;99508.41;5010042;28;20136;-73
2022/04/08 09:18:56;;;;;;;4.40;2.72;;;;;;;13.03;43.09;99505.53;5007176;28;20100;-73
2022/04/08 09:21:25;;;;;;;5.60;2.47;;;;;;;13.04;43.02;99499.09;5007552;28;20050;-73
2022/04/08 09:23:52;;;;;;;3.95;2.60;;;;;;;13.05;42.96;99489.91;5007779;28;20062;-73
2022/04/08 09:26:19;;;;;;;4.50;2.58;;;;;;;13.07;42.85;99489.78;5022967;28;20069;-73
2022/04/08 09:28:46;;;;;;;6.18;3.00;;;;;;;13.08;43.01;99480.59;5001205;28;20077;-73
2022/04/08 09:31:20;;;;;;;4.30;2.65;;;;;;;13.12;42.62;99482.84;5008807;28;20457;-72
2022/04/08 09:33:55;;;;;;;3.58;2.47;;;;;;;13.13;42.34;99470.97;5007118;28;20050;-72
2022/04/08 09:36:32;;;;;;;3.85;2.42;;;;;;;13.15;42.23;99471.69;5004411;28;20080;-72
2022/04/08 09:38:59;;;;;;;5.10;2.47;;;;;;;13.15;42.99;99473.56;5003954;28;20049;-72
2022/04/08 09:41:43;;;;;;;3.40;2.33;;;;;;;13.18;42.10;99468.63;5011115;28;20084;-72
2022/04/08 09:44:12;;;;;;;4.80;2.55;;;;;;;13.18;42.66;99455.00;5007893;28;20049;-72
2022/04/08 09:46:40;;;;;;;3.50;2.40;;;;;;;13.19;42.60;99461.31;5008220;28;20470;-72
2022/04/08 09:49:07;;;;;;;4.63;2.60;;;;;;;13.20;42.39;99463.91;5002860;28;20054;-71
2022/04/08 09:51:37;;;;;;;5.38;2.88;;;;;;;13.22;41.84;99456.44;5008056;28;20461;-72
2022/04/08 09:54:06;;;;;;;4.63;2.72;;;;;;;13.23;42.60;99460.00;5001637;28;20061;-73
2022/04/08 09:56:35;;;;;;;4.75;3.05;;;;;;;13.23;42.71;99451.84;5008455;28;20042;-73
2022/04/08 09:59:11;;;;;;;4.75;2.75;;;;;;;13.26;41.97;99454.25;4999641;28;20088;-72
2022/04/08 10:01:39;;;;;;;5.18;3.15;;;;;;;13.24;42.39;99450.84;5006017;28;20120;-72
2022/04/08 10:04:08;;;;;;;5.15;2.53;;;;;;;13.26;42.52;99451.50;5005685;28;20456;-73
2022/04/08 10:06:36;;;;;;;4.05;2.60;;;;;;;13.25;42.34;99450.69;5007710;28;20141;-72
2022/04/08 10:09:06;;;;;;;3.90;1.85;;;;;;;13.29;41.94;99456.66;5006247;28;20107;-72
2022/04/08 10:11:58;;;;;;;3.90;1.77;;;;;;;13.28;41.07;99452.22;5005219;28;20046;-73
2022/04/08 10:14:48;;;;;;;3.72;1.73;;;;;;;13.27;41.15;99450.50;5000122;28;20057;-72
2022/04/08 10:17:15;;;;;;;3.22;1.40;;;;;;;13.26;42.07;99452.38;5006392;28;20050;-72
2022/04/08 10:19:42;;;;;;;2.85;1.42;;;;;;;13.26;41.90;99451.50;5008697;28;20077;-72
2022/04/08 10:22:20;;;;;;;3.55;1.80;;;;;;;13.30;40.94;99461.13;5008913;28;20046;-72
2022/04/08 10:24:56;;;;;;;3.05;1.70;;;;;;;13.29;41.01;99468.44;5004790;28;20050;-72
2022/04/08 10:27:33;;;;;;;3.53;1.58;;;;;;;13.30;41.43;99472.00;5007224;28;20045;-69
2022/04/08 10:30:30;;;;;;;6.32;2.47;;;;;;;13.31;41.97;99463.69;5003864;28;20060;-69
2022/04/08 10:33:07;;;;;;;4.90;2.40;;;;;;;13.33;42.66;99463.53;5006681;28;20076;-69
2022/04/08 10:35:37;;;;;;;4.60;2.13;;;;;;;13.33;42.61;99467.13;5004264;28;20050;-72
2022/04/08 10:38:09;;;;;;;5.25;1.90;;;;;;;13.41;41.92;99465.50;5002450;28;20121;-72
2022/04/08 10:40:39;;;;;;;3.58;2.15;;;;;;;13.42;42.04;99459.03;4999643;28;20645;-72
2022/04/08 10:43:08;;;;;;;3.92;2.10;;;;;;;13.47;42.12;99462.13;5004614;28;20109;-72
2022/04/08 10:45:35;;;;;;;4.90;2.15;;;;;;;13.47;41.84;99443.91;5006137;28;20156;-72
2022/04/08 10:48:11;;;;;;;3.28;2.03;;;;;;;13.53;40.65;99451.47;5003466;28;20092;-72
2022/04/08 10:50:39;;;;;;;2.90;2.00;;;;;;;13.51;41.54;99439.00;5005533;28;20137;-72
2022/04/08 10:53:12;;;;;;;5.10;2.35;;;;;;;13.53;40.77;99426.94;5006377;28;20046;-73
2022/04/08 10:55:46;;;;;;;3.78;2.22;;;;;;;13.53;40.72;99426.94;5002416;28;20103;-72
2022/04/08 10:58:15;;;;;;;3.65;1.92;;;;;;;13.52;41.35;99422.47;5004220;28;20050;-73
2022/04/08 11:00:42;;;;;;;4.40;1.80;;;;;;;13.53;41.53;99420.63;5003784;28;20490;-73
2022/04/08 11:03:10;;;;;;;4.25;2.22;;;;;;;13.53;40.88;99412.44;5008299;28;20073;-73
2022/04/08 11:05:38;;;;;;;3.40;2.05;;;;;;;13.54;40.93;99409.56;5004584;28;20119;-73
2022/04/08 11:08:07;;;;;;;3.42;1.90;;;;;;;13.54;40.97;99400.50;5006810;28;20045;-73
2022/04/08 11:10:34;;;;;;;3.92;2.20;;;;;;;13.53;41.06;99396.06;4999854;28;20058;-72
2022/04/08 11:13:01;;;;;;;3.55;2.20;;;;;;;13.53;40.78;99385.16;5011003;28;20045;-73
2022/04/08 11:15:28;;;;;;;4.20;2.13;;;;;;;13.52;40.96;99384.31;5009336;28;20130;-72
2022/04/08 11:17:55;;;;;;;4.78;2.47;;;;;;;13.53;40.80;99379.72;5009211;28;20081;-72
2022/04/08 11:20:23;;;;;;;5.45;2.67;;;;;;;13.54;40.99;99375.97;5006308;28;20057;-73
2022/04/08 11:22:52;;;;;;;6.47;2.70;;;;;;;13.54;40.65;99367.78;5002099;28;20050;-73
2022/04/08 11:25:21;;;;;;;5.43;2.95;;;;;;;13.54;40.77;99362.34;5002927;28;20131;-72
2022/04/08 11:27:58;;;;;;;5.78;2.60;;;;;;;13.55;40.13;99364.06;5008115;28;20099;-73
2022/04/08 11:30:25;;;;;;;4.72;2.75;;;;;;;13.51;40.71;99363.50;5012953;28;20054;-73
2022/04/08 11:32:52;;;;;;;4.78;2.63;;;;;;;13.51;41.10;99363.50;5014145;28;20050;-73
2022/04/08 11:35:19;;;;;;;3.92;2.50;;;;;;;13.53;41.02;99364.22;5008526;28;20508;-72
2022/04/08 11:37:45;;;;;;;4.47;2.78;;;;;;;13.53;40.72;99358.75;5005806;28;20485;-72
2022/04/08 11:40:18;;;;;;;4.82;2.28;;;;;;;13.56;39.93;99355.72;5010704;28;20061;-73
2022/04/08 11:42:48;;;;;;;3.78;2.17;;;;;;;13.52;40.66;99348.84;5011442;28;20057;-72